sensor_id;sensor_type;location;lat;lon;timestamp;P1;durP1;ratioP1;P2;durP2;ratioP2
63346;SDS011;49472;49.880;8.650;2023-02-01T00:02:04;11.13;;;9.87;;
63346;SDS011;49472;49.880;8.650;2023-02-01T00:04:30;13.30;;;11.87;;
63346;SDS011;49472;49.880;8.650;2023-02-01T00:06:55;13.73;;;10.90;;
63346;SDS011;49472;49.880;8.650;2023-02-01T00:09:21;14.50;;;11.60;;
63346;SDS011;49472;49.880;8.650;2023-02-01T00:11:46;11.40;;;10.30;;
63346;SDS011;49472;49.880;8.650;2023-02-01T00:14:11;12.47;;;11.20;;
63346;SDS011;49472;49.880;8.650;2023-02-01T00:16:37;12.37;;;10.23;;
63346;SDS011;49472;49.880;8.650;2023-02-01T00:19:03;12.63;;;11.33;;
63346;SDS011;49472;49.880;8.650;2023-02-01T00:21:31;14.00;;;11.10;;
63346;SDS011;49472;49.880;8.650;2023-02-01T00:23:57;16.23;;;11.33;;
63346;SDS011;49472;49.880;8.650;2023-02-01T00:28:57;14.77;;;11.90;;
63346;SDS011;49472;49.880;8.650;2023-02-01T00:31:22;14.07;;;11.87;;
63346;SDS011;49472;49.880;8.650;2023-02-01T00:33:48;13.27;;;11.10;;
63346;SDS011;49472;49.880;8.650;2023-02-01T00:36:13;12.30;;;11.10;;
63346;SDS011;49472;49.880;8.650;2023-02-01T00:38:39;12.27;;;10.97;;
63346;SDS011;49472;49.880;8.650;2023-02-01T00:41:06;13.90;;;11.50;;
63346;SDS011;49472;49.880;8.650;2023-02-01T00:43:36;16.13;;;12.60;;
63346;SDS011;49472;49.880;8.650;2023-02-01T00:46:02;12.37;;;11.23;;
63346;SDS011;49472;49.880;8.650;2023-02-01T00:48:27;14.57;;;11.37;;
63346;SDS011;49472;49.880;8.650;2023-02-01T00:50:53;14.43;;;11.33;;
63346;SDS011;49472;49.880;8.650;2023-02-01T00:53:18;14.00;;;11.93;;
63346;SDS011;49472;49.880;8.650;2023-02-01T00:55:47;20.07;;;11.87;;
63346;SDS011;49472;49.880;8.650;2023-02-01T00:58:12;12.70;;;11.33;;
63346;SDS011;49472;49.880;8.650;2023-02-01T01:00:38;14.00;;;12.60;;
63346;SDS011;49472;49.880;8.650;2023-02-01T01:03:03;12.90;;;11.60;;
63346;SDS011;49472;49.880;8.650;2023-02-01T01:05:42;16.60;;;12.80;;
63346;SDS011;49472;49.880;8.650;2023-02-01T01:08:12;15.87;;;12.43;;
63346;SDS011;49472;49.880;8.650;2023-02-01T01:10:37;13.17;;;11.90;;
63346;SDS011;49472;49.880;8.650;2023-02-01T01:13:03;15.47;;;11.63;;
63346;SDS011;49472;49.880;8.650;2023-02-01T01:15:28;13.27;;;11.97;;
63346;SDS011;49472;49.880;8.650;2023-02-01T01:17:53;15.40;;;11.10;;
63346;SDS011;49472;49.880;8.650;2023-02-01T01:20:22;13.13;;;11.70;;
63346;SDS011;49472;49.880;8.650;2023-02-01T01:22:47;17.60;;;12.33;;
63346;SDS011;49472;49.880;8.650;2023-02-01T01:25:13;19.23;;;13.20;;
63346;SDS011;49472;49.880;8.650;2023-02-01T01:27:39;14.93;;;11.70;;
63346;SDS011;49472;49.880;8.650;2023-02-01T01:30:05;12.80;;;11.60;;
63346;SDS011;49472;49.880;8.650;2023-02-01T01:32:30;15.00;;;12.33;;
63346;SDS011;49472;49.880;8.650;2023-02-01T01:34:56;15.83;;;11.90;;
63346;SDS011;49472;49.880;8.650;2023-02-01T01:37:21;20.60;;;13.50;;
63346;SDS011;49472;49.880;8.650;2023-02-01T01:39:46;13.20;;;11.87;;
63346;SDS011;49472;49.880;8.650;2023-02-01T01:42:11;13.53;;;10.53;;
63346;SDS011;49472;49.880;8.650;2023-02-01T01:44:55;13.17;;;10.60;;
63346;SDS011;49472;49.880;8.650;2023-02-01T01:47:21;14.63;;;10.10;;
63346;SDS011;49472;49.880;8.650;2023-02-01T01:49:46;16.63;;;10.50;;
63346;SDS011;49472;49.880;8.650;2023-02-01T01:52:12;12.80;;;9.73;;
63346;SDS011;49472;49.880;8.650;2023-02-01T01:54:38;15.83;;;9.20;;
63346;SDS011;49472;49.880;8.650;2023-02-01T01:57:09;11.83;;;9.83;;
63346;SDS011;49472;49.880;8.650;2023-02-01T01:59:39;13.77;;;10.60;;
63346;SDS011;49472;49.880;8.650;2023-02-01T02:02:08;15.53;;;11.23;;
63346;SDS011;49472;49.880;8.650;2023-02-01T02:04:34;16.67;;;11.60;;
63346;SDS011;49472;49.880;8.650;2023-02-01T02:07:03;15.23;;;12.53;;
63346;SDS011;49472;49.880;8.650;2023-02-01T02:09:30;18.23;;;11.63;;
63346;SDS011;49472;49.880;8.650;2023-02-01T02:11:55;16.30;;;11.40;;
63346;SDS011;49472;49.880;8.650;2023-02-01T02:14:21;21.07;;;12.43;;
63346;SDS011;49472;49.880;8.650;2023-02-01T02:22:48;16.30;;;10.73;;
63346;SDS011;49472;49.880;8.650;2023-02-01T02:36:51;18.83;;;12.30;;
63346;SDS011;49472;49.880;8.650;2023-02-01T02:42:02;15.60;;;12.30;;
63346;SDS011;49472;49.880;8.650;2023-02-01T02:45:13;17.60;;;12.50;;
63346;SDS011;49472;49.880;8.650;2023-02-01T02:48:20;18.23;;;11.43;;
63346;SDS011;49472;49.880;8.650;2023-02-01T02:50:58;28.33;;;13.27;;
63346;SDS011;49472;49.880;8.650;2023-02-01T02:56:40;18.10;;;13.30;;
63346;SDS011;49472;49.880;8.650;2023-02-01T02:59:25;25.80;;;13.70;;
63346;SDS011;49472;49.880;8.650;2023-02-01T03:02:11;24.50;;;15.07;;
63346;SDS011;49472;49.880;8.650;2023-02-01T03:04:57;26.23;;;13.70;;
63346;SDS011;49472;49.880;8.650;2023-02-01T03:13:11;24.40;;;16.07;;
63346;SDS011;49472;49.880;8.650;2023-02-01T03:15:48;20.80;;;14.10;;
63346;SDS011;49472;49.880;8.650;2023-02-01T03:18:20;26.50;;;15.03;;
63346;SDS011;49472;49.880;8.650;2023-02-01T03:20:51;21.93;;;13.33;;
63346;SDS011;49472;49.880;8.650;2023-02-01T03:23:21;19.63;;;14.00;;
63346;SDS011;49472;49.880;8.650;2023-02-01T03:25:50;17.07;;;12.40;;
63346;SDS011;49472;49.880;8.650;2023-02-01T03:28:18;18.87;;;11.53;;
63346;SDS011;49472;49.880;8.650;2023-02-01T03:30:48;16.50;;;11.77;;
63346;SDS011;49472;49.880;8.650;2023-02-01T03:33:16;15.13;;;10.30;;
63346;SDS011;49472;49.880;8.650;2023-02-01T03:41:56;13.73;;;9.57;;
63346;SDS011;49472;49.880;8.650;2023-02-01T03:44:35;9.77;;;8.60;;
63346;SDS011;49472;49.880;8.650;2023-02-01T03:47:07;18.33;;;8.90;;
63346;SDS011;49472;49.880;8.650;2023-02-01T03:49:42;15.90;;;9.10;;
63346;SDS011;49472;49.880;8.650;2023-02-01T03:52:11;26.23;;;10.23;;
63346;SDS011;49472;49.880;8.650;2023-02-01T03:54:40;19.83;;;10.20;;
63346;SDS011;49472;49.880;8.650;2023-02-01T03:57:07;25.77;;;11.47;;
63346;SDS011;49472;49.880;8.650;2023-02-01T03:59:38;14.23;;;10.83;;
63346;SDS011;49472;49.880;8.650;2023-02-01T04:02:05;16.90;;;11.30;;
63346;SDS011;49472;49.880;8.650;2023-02-01T04:04:31;23.50;;;10.90;;
63346;SDS011;49472;49.880;8.650;2023-02-01T04:06:57;18.27;;;11.37;;
63346;SDS011;49472;49.880;8.650;2023-02-01T04:09:23;23.03;;;10.80;;
63346;SDS011;49472;49.880;8.650;2023-02-01T04:11:48;13.60;;;10.33;;
63346;SDS011;49472;49.880;8.650;2023-02-01T04:14:13;21.80;;;11.63;;
63346;SDS011;49472;49.880;8.650;2023-02-01T04:16:39;22.63;;;11.73;;
63346;SDS011;49472;49.880;8.650;2023-02-01T04:19:04;20.30;;;11.87;;
63346;SDS011;49472;49.880;8.650;2023-02-01T04:21:29;19.47;;;10.70;;
63346;SDS011;49472;49.880;8.650;2023-02-01T04:23:54;13.17;;;10.10;;
63346;SDS011;49472;49.880;8.650;2023-02-01T04:26:20;17.47;;;11.47;;
63346;SDS011;49472;49.880;8.650;2023-02-01T04:28:46;15.80;;;10.60;;
63346;SDS011;49472;49.880;8.650;2023-02-01T04:31:13;16.33;;;11.20;;
63346;SDS011;49472;49.880;8.650;2023-02-01T04:33:39;13.80;;;10.07;;
63346;SDS011;49472;49.880;8.650;2023-02-01T04:36:04;23.00;;;10.03;;
63346;SDS011;49472;49.880;8.650;2023-02-01T04:38:30;12.73;;;10.13;;
63346;SDS011;49472;49.880;8.650;2023-02-01T04:40:57;12.97;;;9.47;;
63346;SDS011;49472;49.880;8.650;2023-02-01T04:43:22;17.37;;;9.17;;
63346;SDS011;49472;49.880;8.650;2023-02-01T04:45:48;12.60;;;8.90;;
63346;SDS011;49472;49.880;8.650;2023-02-01T04:48:14;21.53;;;9.93;;
63346;SDS011;49472;49.880;8.650;2023-02-01T04:50:40;12.43;;;8.60;;
63346;SDS011;49472;49.880;8.650;2023-02-01T04:53:06;13.90;;;9.80;;
63346;SDS011;49472;49.880;8.650;2023-02-01T04:55:31;14.13;;;8.53;;
63346;SDS011;49472;49.880;8.650;2023-02-01T04:57:56;15.73;;;8.13;;
63346;SDS011;49472;49.880;8.650;2023-02-01T05:00:22;17.57;;;8.60;;
63346;SDS011;49472;49.880;8.650;2023-02-01T05:02:47;10.80;;;8.23;;
63346;SDS011;49472;49.880;8.650;2023-02-01T05:05:12;9.70;;;7.37;;
63346;SDS011;49472;49.880;8.650;2023-02-01T05:07:38;11.67;;;7.77;;
63346;SDS011;49472;49.880;8.650;2023-02-01T05:10:03;7.47;;;6.73;;
63346;SDS011;49472;49.880;8.650;2023-02-01T05:12:28;13.13;;;7.67;;
63346;SDS011;49472;49.880;8.650;2023-02-01T05:15:12;8.50;;;6.60;;
63346;SDS011;49472;49.880;8.650;2023-02-01T05:17:37;9.50;;;6.20;;
63346;SDS011;49472;49.880;8.650;2023-02-01T05:20:05;10.40;;;6.77;;
63346;SDS011;49472;49.880;8.650;2023-02-01T05:22:31;7.83;;;5.53;;
63346;SDS011;49472;49.880;8.650;2023-02-01T05:24:56;9.43;;;5.73;;
63346;SDS011;49472;49.880;8.650;2023-02-01T05:27:22;9.77;;;5.40;;
63346;SDS011;49472;49.880;8.650;2023-02-01T05:29:47;15.23;;;5.40;;
63346;SDS011;49472;49.880;8.650;2023-02-01T05:32:12;6.00;;;5.40;;
63346;SDS011;49472;49.880;8.650;2023-02-01T05:34:37;15.33;;;5.47;;
63346;SDS011;49472;49.880;8.650;2023-02-01T05:37:03;8.53;;;5.70;;
63346;SDS011;49472;49.880;8.650;2023-02-01T05:39:28;13.43;;;5.57;;
63346;SDS011;49472;49.880;8.650;2023-02-01T05:41:53;9.93;;;5.80;;
63346;SDS011;49472;49.880;8.650;2023-02-01T05:44:18;14.33;;;5.87;;
63346;SDS011;49472;49.880;8.650;2023-02-01T05:46:44;6.70;;;6.00;;
63346;SDS011;49472;49.880;8.650;2023-02-01T05:49:09;8.17;;;5.80;;
63346;SDS011;49472;49.880;8.650;2023-02-01T05:51:35;13.43;;;6.83;;
63346;SDS011;49472;49.880;8.650;2023-02-01T05:54:00;10.40;;;5.53;;
63346;SDS011;49472;49.880;8.650;2023-02-01T05:56:25;8.20;;;5.50;;
63346;SDS011;49472;49.880;8.650;2023-02-01T05:58:50;10.03;;;6.93;;
63346;SDS011;49472;49.880;8.650;2023-02-01T06:01:16;12.67;;;6.13;;
63346;SDS011;49472;49.880;8.650;2023-02-01T06:03:41;10.77;;;6.67;;
63346;SDS011;49472;49.880;8.650;2023-02-01T06:06:06;15.60;;;6.97;;
63346;SDS011;49472;49.880;8.650;2023-02-01T06:08:32;15.03;;;6.43;;
63346;SDS011;49472;49.880;8.650;2023-02-01T06:11:01;13.27;;;8.57;;
63346;SDS011;49472;49.880;8.650;2023-02-01T06:13:28;8.30;;;7.50;;
63346;SDS011;49472;49.880;8.650;2023-02-01T06:15:54;12.50;;;7.33;;
63346;SDS011;49472;49.880;8.650;2023-02-01T06:18:20;8.60;;;7.30;;
63346;SDS011;49472;49.880;8.650;2023-02-01T06:20:51;18.13;;;7.47;;
63346;SDS011;49472;49.880;8.650;2023-02-01T06:23:17;13.77;;;7.00;;
63346;SDS011;49472;49.880;8.650;2023-02-01T06:25:43;11.10;;;7.53;;
63346;SDS011;49472;49.880;8.650;2023-02-01T06:28:08;10.73;;;7.80;;
63346;SDS011;49472;49.880;8.650;2023-02-01T06:30:33;9.10;;;8.30;;
63346;SDS011;49472;49.880;8.650;2023-02-01T06:32:59;10.80;;;8.27;;
63346;SDS011;49472;49.880;8.650;2023-02-01T06:35:24;14.80;;;8.10;;
63346;SDS011;49472;49.880;8.650;2023-02-01T06:37:51;9.13;;;8.30;;
63346;SDS011;49472;49.880;8.650;2023-02-01T06:40:16;9.87;;;9.03;;
63346;SDS011;49472;49.880;8.650;2023-02-01T06:42:42;8.73;;;8.23;;
63346;SDS011;49472;49.880;8.650;2023-02-01T06:45:08;8.17;;;7.70;;
63346;SDS011;49472;49.880;8.650;2023-02-01T06:47:33;9.80;;;8.40;;
63346;SDS011;49472;49.880;8.650;2023-02-01T06:49:59;9.03;;;8.13;;
63346;SDS011;49472;49.880;8.650;2023-02-01T06:52:24;10.77;;;9.60;;
63346;SDS011;49472;49.880;8.650;2023-02-01T06:54:49;11.73;;;10.57;;
63346;SDS011;49472;49.880;8.650;2023-02-01T06:57:15;12.00;;;10.20;;
63346;SDS011;49472;49.880;8.650;2023-02-01T06:59:40;11.40;;;9.40;;
63346;SDS011;49472;49.880;8.650;2023-02-01T07:02:05;16.73;;;10.30;;
63346;SDS011;49472;49.880;8.650;2023-02-01T07:04:30;17.30;;;10.20;;
63346;SDS011;49472;49.880;8.650;2023-02-01T07:06:56;12.33;;;9.70;;
63346;SDS011;49472;49.880;8.650;2023-02-01T07:09:21;15.53;;;9.90;;
63346;SDS011;49472;49.880;8.650;2023-02-01T07:11:46;17.10;;;10.90;;
63346;SDS011;49472;49.880;8.650;2023-02-01T07:14:12;15.10;;;11.60;;
63346;SDS011;49472;49.880;8.650;2023-02-01T07:16:37;11.63;;;10.43;;
63346;SDS011;49472;49.880;8.650;2023-02-01T07:19:03;11.93;;;10.47;;
63346;SDS011;49472;49.880;8.650;2023-02-01T07:21:29;11.80;;;10.77;;
63346;SDS011;49472;49.880;8.650;2023-02-01T07:23:54;10.60;;;9.90;;
63346;SDS011;49472;49.880;8.650;2023-02-01T07:26:20;12.07;;;11.00;;
63346;SDS011;49472;49.880;8.650;2023-02-01T07:28:46;11.30;;;10.37;;
63346;SDS011;49472;49.880;8.650;2023-02-01T07:31:13;15.57;;;10.10;;
63346;SDS011;49472;49.880;8.650;2023-02-01T07:33:44;13.40;;;10.23;;
63346;SDS011;49472;49.880;8.650;2023-02-01T07:36:11;9.70;;;9.10;;
63346;SDS011;49472;49.880;8.650;2023-02-01T07:38:37;21.37;;;10.10;;
63346;SDS011;49472;49.880;8.650;2023-02-01T07:41:03;17.67;;;11.77;;
63346;SDS011;49472;49.880;8.650;2023-02-01T07:43:30;12.23;;;10.30;;
63346;SDS011;49472;49.880;8.650;2023-02-01T07:45:56;18.17;;;10.93;;
63346;SDS011;49472;49.880;8.650;2023-02-01T07:48:22;12.00;;;10.80;;
63346;SDS011;49472;49.880;8.650;2023-02-01T07:50:56;15.90;;;10.03;;
63346;SDS011;49472;49.880;8.650;2023-02-01T07:53:24;12.43;;;10.97;;
63346;SDS011;49472;49.880;8.650;2023-02-01T07:55:50;18.37;;;11.17;;
63346;SDS011;49472;49.880;8.650;2023-02-01T07:58:15;14.60;;;11.20;;
63346;SDS011;49472;49.880;8.650;2023-02-01T08:00:40;16.90;;;10.50;;
63346;SDS011;49472;49.880;8.650;2023-02-01T08:03:24;21.40;;;12.10;;
63346;SDS011;49472;49.880;8.650;2023-02-01T08:05:53;10.97;;;9.73;;
63346;SDS011;49472;49.880;8.650;2023-02-01T08:08:20;13.17;;;11.27;;
63346;SDS011;49472;49.880;8.650;2023-02-01T08:10:45;12.40;;;11.40;;
63346;SDS011;49472;49.880;8.650;2023-02-01T08:13:10;14.20;;;11.20;;
63346;SDS011;49472;49.880;8.650;2023-02-01T08:15:36;14.80;;;12.30;;
63346;SDS011;49472;49.880;8.650;2023-02-01T08:18:01;18.27;;;12.30;;
63346;SDS011;49472;49.880;8.650;2023-02-01T08:20:27;24.07;;;12.17;;
63346;SDS011;49472;49.880;8.650;2023-02-01T08:22:53;12.80;;;11.17;;
63346;SDS011;49472;49.880;8.650;2023-02-01T08:25:19;19.93;;;12.40;;
63346;SDS011;49472;49.880;8.650;2023-02-01T08:27:44;19.37;;;12.80;;
63346;SDS011;49472;49.880;8.650;2023-02-01T08:30:10;16.57;;;12.33;;
63346;SDS011;49472;49.880;8.650;2023-02-01T08:32:36;16.33;;;13.53;;
63346;SDS011;49472;49.880;8.650;2023-02-01T08:35:02;23.70;;;13.57;;
63346;SDS011;49472;49.880;8.650;2023-02-01T08:37:28;29.00;;;13.37;;
63346;SDS011;49472;49.880;8.650;2023-02-01T08:39:54;24.93;;;13.73;;
63346;SDS011;49472;49.880;8.650;2023-02-01T08:42:19;20.33;;;13.67;;
63346;SDS011;49472;49.880;8.650;2023-02-01T08:45:03;19.87;;;14.70;;
63346;SDS011;49472;49.880;8.650;2023-02-01T08:47:29;18.93;;;14.13;;
63346;SDS011;49472;49.880;8.650;2023-02-01T08:49:55;21.67;;;15.03;;
63346;SDS011;49472;49.880;8.650;2023-02-01T08:52:21;15.87;;;14.10;;
63346;SDS011;49472;49.880;8.650;2023-02-01T08:54:47;21.90;;;13.60;;
63346;SDS011;49472;49.880;8.650;2023-02-01T08:57:12;19.93;;;14.60;;
63346;SDS011;49472;49.880;8.650;2023-02-01T08:59:38;30.13;;;14.20;;
63346;SDS011;49472;49.880;8.650;2023-02-01T09:02:03;22.23;;;14.43;;
63346;SDS011;49472;49.880;8.650;2023-02-01T09:04:29;20.00;;;14.50;;
63346;SDS011;49472;49.880;8.650;2023-02-01T09:06:54;18.47;;;14.37;;
63346;SDS011;49472;49.880;8.650;2023-02-01T09:09:21;16.53;;;14.77;;
63346;SDS011;49472;49.880;8.650;2023-02-01T09:11:46;18.63;;;15.10;;
63346;SDS011;49472;49.880;8.650;2023-02-01T09:14:12;25.30;;;14.23;;
63346;SDS011;49472;49.880;8.650;2023-02-01T09:16:37;22.70;;;15.40;;
63346;SDS011;49472;49.880;8.650;2023-02-01T09:19:02;23.93;;;16.30;;
63346;SDS011;49472;49.880;8.650;2023-02-01T09:21:28;18.87;;;15.10;;
63346;SDS011;49472;49.880;8.650;2023-02-01T09:23:54;27.73;;;17.10;;
63346;SDS011;49472;49.880;8.650;2023-02-01T09:26:19;23.17;;;16.07;;
63346;SDS011;49472;49.880;8.650;2023-02-01T09:28:44;19.20;;;15.97;;
63346;SDS011;49472;49.880;8.650;2023-02-01T09:31:10;26.63;;;16.27;;
63346;SDS011;49472;49.880;8.650;2023-02-01T09:33:35;16.57;;;14.60;;
63346;SDS011;49472;49.880;8.650;2023-02-01T09:36:02;27.57;;;18.37;;
63346;SDS011;49472;49.880;8.650;2023-02-01T09:38:29;25.20;;;16.77;;
63346;SDS011;49472;49.880;8.650;2023-02-01T09:40:56;23.13;;;16.27;;
63346;SDS011;49472;49.880;8.650;2023-02-01T09:48:46;19.67;;;17.60;;
63346;SDS011;49472;49.880;8.650;2023-02-01T09:51:14;22.80;;;17.73;;
63346;SDS011;49472;49.880;8.650;2023-02-01T09:53:47;27.10;;;16.80;;
63346;SDS011;49472;49.880;8.650;2023-02-01T09:56:21;18.60;;;16.73;;
63346;SDS011;49472;49.880;8.650;2023-02-01T09:58:55;32.70;;;16.70;;
63346;SDS011;49472;49.880;8.650;2023-02-01T10:01:29;17.83;;;16.07;;
63346;SDS011;49472;49.880;8.650;2023-02-01T10:04:01;22.90;;;16.47;;
63346;SDS011;49472;49.880;8.650;2023-02-01T10:06:33;23.97;;;16.67;;
63346;SDS011;49472;49.880;8.650;2023-02-01T10:22:43;19.00;;;17.30;;
63346;SDS011;49472;49.880;8.650;2023-02-01T10:25:17;25.43;;;16.70;;
63346;SDS011;49472;49.880;8.650;2023-02-01T10:28:03;22.40;;;16.80;;
63346;SDS011;49472;49.880;8.650;2023-02-01T10:30:37;25.47;;;17.17;;
63346;SDS011;49472;49.880;8.650;2023-02-01T10:33:17;22.10;;;17.00;;
63346;SDS011;49472;49.880;8.650;2023-02-01T10:35:54;19.13;;;17.23;;
63346;SDS011;49472;49.880;8.650;2023-02-01T10:38:28;22.00;;;17.23;;
63346;SDS011;49472;49.880;8.650;2023-02-01T10:40:55;22.10;;;17.80;;
63346;SDS011;49472;49.880;8.650;2023-02-01T10:43:26;24.00;;;16.90;;
63346;SDS011;49472;49.880;8.650;2023-02-01T10:45:52;19.67;;;17.00;;
63346;SDS011;49472;49.880;8.650;2023-02-01T10:48:17;18.53;;;16.70;;
63346;SDS011;49472;49.880;8.650;2023-02-01T10:50:48;18.37;;;16.57;;
63346;SDS011;49472;49.880;8.650;2023-02-01T10:55:51;20.87;;;18.00;;
63346;SDS011;49472;49.880;8.650;2023-02-01T10:58:36;18.83;;;16.90;;
63346;SDS011;49472;49.880;8.650;2023-02-01T11:01:16;20.80;;;16.67;;
63346;SDS011;49472;49.880;8.650;2023-02-01T11:04:04;18.43;;;16.60;;
63346;SDS011;49472;49.880;8.650;2023-02-01T11:06:37;20.93;;;18.23;;
63346;SDS011;49472;49.880;8.650;2023-02-01T11:11:30;20.97;;;18.13;;
63346;SDS011;49472;49.880;8.650;2023-02-01T11:13:57;25.60;;;17.80;;
63346;SDS011;49472;49.880;8.650;2023-02-01T11:16:31;23.03;;;18.00;;
63346;SDS011;49472;49.880;8.650;2023-02-01T11:18:59;22.73;;;16.70;;
63346;SDS011;49472;49.880;8.650;2023-02-01T11:21:25;21.13;;;17.20;;
63346;SDS011;49472;49.880;8.650;2023-02-01T11:23:51;27.17;;;18.70;;
63346;SDS011;49472;49.880;8.650;2023-02-01T11:26:20;27.30;;;17.73;;
63346;SDS011;49472;49.880;8.650;2023-02-01T11:29:09;33.30;;;19.73;;
63346;SDS011;49472;49.880;8.650;2023-02-01T11:31:36;20.20;;;18.20;;
63346;SDS011;49472;49.880;8.650;2023-02-01T11:36:39;23.20;;;17.30;;
63346;SDS011;49472;49.880;8.650;2023-02-01T11:39:09;19.20;;;17.40;;
63346;SDS011;49472;49.880;8.650;2023-02-01T11:41:56;30.47;;;23.83;;
63346;SDS011;49472;49.880;8.650;2023-02-01T11:44:26;25.63;;;18.70;;
63346;SDS011;49472;49.880;8.650;2023-02-01T11:46:59;27.60;;;24.77;;
63346;SDS011;49472;49.880;8.650;2023-02-01T11:49:43;30.63;;;19.47;;
63346;SDS011;49472;49.880;8.650;2023-02-01T11:52:30;22.00;;;17.73;;
63346;SDS011;49472;49.880;8.650;2023-02-01T12:10:47;25.53;;;19.10;;
63346;SDS011;49472;49.880;8.650;2023-02-01T12:18:50;20.57;;;18.37;;
63346;SDS011;49472;49.880;8.650;2023-02-01T12:21:21;21.60;;;18.60;;
63346;SDS011;49472;49.880;8.650;2023-02-01T12:26:46;21.97;;;19.07;;
63346;SDS011;49472;49.880;8.650;2023-02-01T12:35:09;23.27;;;17.27;;
63346;SDS011;49472;49.880;8.650;2023-02-01T12:40:27;18.33;;;16.83;;
63346;SDS011;49472;49.880;8.650;2023-02-01T12:43:18;19.67;;;17.57;;
63346;SDS011;49472;49.880;8.650;2023-02-01T12:46:01;24.43;;;18.77;;
63346;SDS011;49472;49.880;8.650;2023-02-01T12:48:33;28.83;;;19.50;;
63346;SDS011;49472;49.880;8.650;2023-02-01T12:51:07;22.23;;;20.20;;
63346;SDS011;49472;49.880;8.650;2023-02-01T12:56:37;24.50;;;17.77;;
63346;SDS011;49472;49.880;8.650;2023-02-01T12:59:15;19.97;;;17.63;;
63346;SDS011;49472;49.880;8.650;2023-02-01T13:04:34;20.20;;;16.50;;
63346;SDS011;49472;49.880;8.650;2023-02-01T13:07:09;60.80;;;35.67;;
63346;SDS011;49472;49.880;8.650;2023-02-01T13:12:14;27.87;;;16.77;;
63346;SDS011;49472;49.880;8.650;2023-02-01T13:14:50;22.37;;;17.83;;
63346;SDS011;49472;49.880;8.650;2023-02-01T13:17:25;29.07;;;17.73;;
63346;SDS011;49472;49.880;8.650;2023-02-01T13:27:37;19.07;;;17.10;;
63346;SDS011;49472;49.880;8.650;2023-02-01T13:38:09;27.13;;;19.70;;
63346;SDS011;49472;49.880;8.650;2023-02-01T13:41:16;17.43;;;15.90;;
63346;SDS011;49472;49.880;8.650;2023-02-01T13:43:37;20.07;;;16.10;;
63346;SDS011;49472;49.880;8.650;2023-02-01T13:46:07;97.67;;;47.87;;
63346;SDS011;49472;49.880;8.650;2023-02-01T13:51:11;19.97;;;18.20;;
63346;SDS011;49472;49.880;8.650;2023-02-01T13:53:43;24.53;;;19.50;;
63346;SDS011;49472;49.880;8.650;2023-02-01T13:56:12;25.57;;;22.87;;
63346;SDS011;49472;49.880;8.650;2023-02-01T13:58:42;25.40;;;16.50;;
63346;SDS011;49472;49.880;8.650;2023-02-01T14:03:47;19.60;;;17.70;;
63346;SDS011;49472;49.880;8.650;2023-02-01T14:11:41;19.03;;;17.07;;
63346;SDS011;49472;49.880;8.650;2023-02-01T14:16:42;34.47;;;26.53;;
63346;SDS011;49472;49.880;8.650;2023-02-01T14:19:08;41.13;;;25.40;;
63346;SDS011;49472;49.880;8.650;2023-02-01T14:21:47;38.40;;;26.13;;
63346;SDS011;49472;49.880;8.650;2023-02-01T14:26:48;21.10;;;16.03;;
63346;SDS011;49472;49.880;8.650;2023-02-01T14:37:00;26.20;;;16.50;;
63346;SDS011;49472;49.880;8.650;2023-02-01T14:42:19;34.27;;;27.73;;
63346;SDS011;49472;49.880;8.650;2023-02-01T14:44:50;17.33;;;15.63;;
63346;SDS011;49472;49.880;8.650;2023-02-01T14:49:50;20.10;;;16.20;;
63346;SDS011;49472;49.880;8.650;2023-02-01T14:52:22;32.17;;;27.30;;
63346;SDS011;49472;49.880;8.650;2023-02-01T14:54:55;26.47;;;19.30;;
63346;SDS011;49472;49.880;8.650;2023-02-01T14:57:26;18.60;;;16.40;;
63346;SDS011;49472;49.880;8.650;2023-02-01T14:59:55;38.80;;;25.13;;
63346;SDS011;49472;49.880;8.650;2023-02-01T15:02:25;24.83;;;17.07;;
63346;SDS011;49472;49.880;8.650;2023-02-01T15:04:53;20.97;;;17.27;;
63346;SDS011;49472;49.880;8.650;2023-02-01T15:07:21;21.20;;;18.50;;
63346;SDS011;49472;49.880;8.650;2023-02-01T15:09:49;25.43;;;18.80;;
63346;SDS011;49472;49.880;8.650;2023-02-01T15:12:16;23.47;;;19.20;;
63346;SDS011;49472;49.880;8.650;2023-02-01T15:17:42;29.30;;;19.27;;
63346;SDS011;49472;49.880;8.650;2023-02-01T15:20:19;24.30;;;18.40;;
63346;SDS011;49472;49.880;8.650;2023-02-01T15:22:54;32.07;;;19.90;;
63346;SDS011;49472;49.880;8.650;2023-02-01T15:25:22;23.77;;;17.43;;
63346;SDS011;49472;49.880;8.650;2023-02-01T15:28:00;25.07;;;16.27;;
63346;SDS011;49472;49.880;8.650;2023-02-01T15:30:26;34.40;;;24.10;;
63346;SDS011;49472;49.880;8.650;2023-02-01T15:43:29;60.33;;;30.70;;
63346;SDS011;49472;49.880;8.650;2023-02-01T15:46:02;24.70;;;19.33;;
63346;SDS011;49472;49.880;8.650;2023-02-01T15:48:36;19.83;;;17.70;;
63346;SDS011;49472;49.880;8.650;2023-02-01T15:51:04;20.33;;;17.70;;
63346;SDS011;49472;49.880;8.650;2023-02-01T15:53:30;21.83;;;16.47;;
63346;SDS011;49472;49.880;8.650;2023-02-01T15:56:00;21.40;;;15.77;;
63346;SDS011;49472;49.880;8.650;2023-02-01T15:58:28;22.20;;;16.90;;
63346;SDS011;49472;49.880;8.650;2023-02-01T16:00:57;30.63;;;22.30;;
63346;SDS011;49472;49.880;8.650;2023-02-01T16:03:34;31.23;;;21.53;;
63346;SDS011;49472;49.880;8.650;2023-02-01T16:06:03;25.63;;;21.27;;
63346;SDS011;49472;49.880;8.650;2023-02-01T16:08:34;41.13;;;20.63;;
63346;SDS011;49472;49.880;8.650;2023-02-01T16:13:33;22.40;;;17.60;;
63346;SDS011;49472;49.880;8.650;2023-02-01T16:15:58;22.77;;;19.20;;
63346;SDS011;49472;49.880;8.650;2023-02-01T16:18:24;28.00;;;19.10;;
63346;SDS011;49472;49.880;8.650;2023-02-01T16:20:49;19.43;;;15.87;;
63346;SDS011;49472;49.880;8.650;2023-02-01T16:23:15;20.33;;;18.20;;
63346;SDS011;49472;49.880;8.650;2023-02-01T16:25:40;24.20;;;17.40;;
63346;SDS011;49472;49.880;8.650;2023-02-01T16:28:05;23.70;;;19.17;;
63346;SDS011;49472;49.880;8.650;2023-02-01T16:30:31;33.57;;;26.20;;
63346;SDS011;49472;49.880;8.650;2023-02-01T16:32:58;22.50;;;17.53;;
63346;SDS011;49472;49.880;8.650;2023-02-01T16:35:28;54.90;;;35.60;;
63346;SDS011;49472;49.880;8.650;2023-02-01T16:38:05;63.63;;;41.80;;
63346;SDS011;49472;49.880;8.650;2023-02-01T16:40:37;65.27;;;40.87;;
63346;SDS011;49472;49.880;8.650;2023-02-01T16:43:12;23.33;;;15.87;;
63346;SDS011;49472;49.880;8.650;2023-02-01T16:45:39;31.63;;;18.03;;
63346;SDS011;49472;49.880;8.650;2023-02-01T16:48:10;22.40;;;16.27;;
63346;SDS011;49472;49.880;8.650;2023-02-01T16:50:45;26.13;;;17.70;;
63346;SDS011;49472;49.880;8.650;2023-02-01T16:53:11;23.00;;;19.60;;
63346;SDS011;49472;49.880;8.650;2023-02-01T16:55:39;20.50;;;18.20;;
63346;SDS011;49472;49.880;8.650;2023-02-01T16:58:04;30.60;;;20.57;;
63346;SDS011;49472;49.880;8.650;2023-02-01T17:00:29;40.50;;;20.00;;
63346;SDS011;49472;49.880;8.650;2023-02-01T17:02:56;18.03;;;16.20;;
63346;SDS011;49472;49.880;8.650;2023-02-01T17:05:21;40.77;;;26.93;;
63346;SDS011;49472;49.880;8.650;2023-02-01T17:07:46;28.13;;;19.53;;
63346;SDS011;49472;49.880;8.650;2023-02-01T17:10:17;45.93;;;25.10;;
63346;SDS011;49472;49.880;8.650;2023-02-01T17:12:47;49.83;;;27.40;;
63346;SDS011;49472;49.880;8.650;2023-02-01T17:15:12;207.10;;;83.63;;
63346;SDS011;49472;49.880;8.650;2023-02-01T17:17:38;53.73;;;30.00;;
63346;SDS011;49472;49.880;8.650;2023-02-01T17:20:04;60.77;;;34.10;;
63346;SDS011;49472;49.880;8.650;2023-02-01T17:22:31;28.30;;;21.90;;